Welwyn Garden City, United Kingdom
Current Conditions -  °F | °C
As of 8:20 PM on Wednesday 28 Jan 2015 (Local Time) from EGGW Reporting Station
Clear Clear  
Wind Chill: 25°   Ceiling: Unl
Heat Index: 36°   Visibility: 6mi
Dew Point: 28°   Wind: 17mph
Humidity: 75%   Direction: 250°WSW
Pressure: 29.53"   Gusts: NA
Location:  51.8°N, 0.21°W
Report Text: EGGW 282020Z 25015KT CAVOK 02/M02 Q1000
Loading
Personal Weather Stations






























Interactive Weather Map New forecast layout! Learn more

10-Day Weather Forecast

Advertisements
Track Severe Weather on mobile